Time;durP1;ratioP1;P1;durP2;ratioP2;P2;SDS_P1;SDS_P2;PMS_P1;PMS_P2;Temp;Humidity;BMP_temperature;BMP_pressure;BME280_temperature;BME280_humidity;BME280_pressure;Samples;Min_cycle;Max_cycle;Signal;HPM_P1;HPM_P2
2023/08/18 00:00:30;;;;;;;5.63;3.10;;;;;;;23.77;57.85;101704.38;5025914;28;20033;-62
2023/08/18 00:02:55;;;;;;;5.18;3.10;;;;;;;23.74;57.91;101700.16;5026002;28;20041;-62
2023/08/18 00:05:21;;;;;;;4.95;3.30;;;;;;;23.76;57.24;101705.34;5026825;28;20455;-62
2023/08/18 00:07:46;;;;;;;5.72;3.40;;;;;;;23.75;57.77;101699.19;5026790;28;20385;-63
2023/08/18 00:10:11;;;;;;;6.60;3.38;;;;;;;23.74;57.75;101697.50;5026482;28;20026;-62
2023/08/18 00:12:36;;;;;;;5.50;3.40;;;;;;;23.73;57.75;101694.00;5027201;28;20394;-63
2023/08/18 00:15:02;;;;;;;5.85;3.70;;;;;;;23.73;57.72;101694.00;5027124;28;20033;-61
2023/08/18 00:17:28;;;;;;;5.78;3.15;;;;;;;23.73;57.53;101698.47;5027919;28;20032;-65
2023/08/18 00:19:53;;;;;;;6.25;3.38;;;;;;;23.73;57.66;101694.00;5025720;28;20026;-63
2023/08/18 00:22:18;;;;;;;5.00;3.33;;;;;;;23.73;57.34;101688.69;5024997;28;20079;-65
2023/08/18 00:24:44;;;;;;;5.18;3.00;;;;;;;23.72;57.72;101683.50;5025720;28;20029;-62
2023/08/18 00:27:09;;;;;;;4.93;3.00;;;;;;;23.71;57.24;101682.63;5023968;28;20494;-62
2023/08/18 00:29:35;;;;;;;6.03;3.30;;;;;;;23.72;57.11;101683.50;5039137;28;20034;-66
2023/08/18 00:32:00;;;;;;;6.20;3.13;;;;;;;23.71;57.59;101682.63;5025494;28;20110;-63
2023/08/18 00:34:26;;;;;;;6.13;3.38;;;;;;;23.73;57.66;101685.16;5025260;28;20432;-63
2023/08/18 00:36:52;;;;;;;4.85;3.05;;;;;;;23.71;57.58;101679.13;5024997;28;20035;-65
2023/08/18 00:39:17;;;;;;;4.90;3.00;;;;;;;23.71;57.04;101672.00;5025291;28;20048;-66
2023/08/18 00:41:42;;;;;;;4.82;2.90;;;;;;;23.72;57.25;101678.16;5025274;28;20029;-66
2023/08/18 00:44:08;;;;;;;6.10;3.33;;;;;;;23.72;57.00;101680.84;5024985;28;21242;-66
2023/08/18 00:46:33;;;;;;;4.90;3.08;;;;;;;23.70;57.38;101678.31;5025142;28;20388;-66
2023/08/18 00:49:02;;;;;;;5.70;3.90;;;;;;;23.70;57.32;101678.31;5025013;28;20511;-64
2023/08/18 00:51:29;;;;;;;4.97;2.85;;;;;;;23.70;57.35;101683.63;5024979;28;20069;-66
2023/08/18 00:53:55;;;;;;;5.20;3.10;;;;;;;23.69;57.02;101678.44;5025202;28;20024;-64
2023/08/18 00:56:21;;;;;;;5.15;3.35;;;;;;;23.70;57.34;101682.78;5025442;28;20052;-63
2023/08/18 00:58:47;;;;;;;4.30;2.83;;;;;;;23.69;57.22;101686.44;5025166;28;20026;-64
2023/08/18 01:01:12;;;;;;;4.18;2.72;;;;;;;23.70;57.07;101685.44;5025136;28;20033;-63
2023/08/18 01:03:38;;;;;;;5.07;3.20;;;;;;;23.67;56.90;101677.72;5025273;28;20756;-64
2023/08/18 01:06:03;;;;;;;4.25;2.58;;;;;;;23.68;56.71;101679.41;5024796;28;20025;-66
2023/08/18 01:08:29;;;;;;;5.35;2.60;;;;;;;23.68;56.87;101676.75;5025267;28;20406;-65
2023/08/18 01:11:03;;;;;;;4.28;2.67;;;;;;;23.68;56.88;101687.41;5025160;28;20398;-64
2023/08/18 01:13:53;;;;;;;4.90;3.03;;;;;;;23.66;57.08;101679.56;5024962;28;20478;-65
2023/08/18 01:16:26;;;;;;;4.00;2.50;;;;;;;23.66;56.76;101681.38;5024887;28;20079;-62
2023/08/18 01:18:53;;;;;;;5.75;2.90;;;;;;;23.66;56.82;101678.72;5024903;28;20033;-65
2023/08/18 01:21:24;;;;;;;4.78;2.80;;;;;;;23.66;56.75;101684.06;5025112;28;20076;-65
2023/08/18 01:23:49;;;;;;;4.80;2.97;;;;;;;23.67;56.97;101677.72;5024642;28;20037;-65
2023/08/18 01:26:15;;;;;;;4.70;2.88;;;;;;;23.66;56.65;101663.59;5024431;28;20458;-64
2023/08/18 01:28:43;;;;;;;5.13;3.10;;;;;;;23.66;56.81;101658.28;5024982;28;20516;-64
2023/08/18 01:31:14;;;;;;;5.25;2.90;;;;;;;23.65;57.07;101661.91;5024439;28;20029;-63
2023/08/18 01:33:58;;;;;;;4.45;2.83;;;;;;;23.65;56.86;101661.06;5025137;28;20087;-65
2023/08/18 01:36:26;;;;;;;3.50;2.38;;;;;;;23.66;56.92;101652.94;5029079;28;20112;-63
2023/08/18 01:38:54;;;;;;;4.63;2.70;;;;;;;23.64;56.84;101638.97;5030409;28;20060;-64
2023/08/18 01:41:23;;;;;;;5.35;2.70;;;;;;;23.65;57.04;101640.63;5028732;28;20041;-62
2023/08/18 01:43:49;;;;;;;4.45;2.67;;;;;;;23.64;56.70;101638.97;5030201;28;20365;-63
2023/08/18 01:46:14;;;;;;;4.25;2.47;;;;;;;23.65;56.90;101639.78;5029553;28;20041;-62
2023/08/18 01:48:39;;;;;;;4.72;2.95;;;;;;;23.65;56.37;101642.44;5028758;28;20026;-63
2023/08/18 01:51:05;;;;;;;4.75;2.58;;;;;;;23.65;56.40;101650.44;5027635;28;20116;-63
2023/08/18 01:53:30;;;;;;;4.65;2.80;;;;;;;23.64;56.68;101646.06;5028178;28;20044;-63
2023/08/18 01:55:59;;;;;;;4.93;2.55;;;;;;;23.64;56.27;101652.25;5028189;28;20101;-63
2023/08/18 01:58:24;;;;;;;4.95;2.55;;;;;;;23.65;56.79;101634.47;5027766;28;20041;-63
2023/08/18 02:00:54;;;;;;;4.77;2.57;;;;;;;23.62;56.38;101624.09;5028376;28;20037;-64
2023/08/18 02:03:19;;;;;;;4.63;2.50;;;;;;;23.62;56.39;101630.25;5027996;28;20287;-64
2023/08/18 02:05:44;;;;;;;5.40;2.75;;;;;;;23.63;56.28;101623.13;5027711;28;20040;-63
2023/08/18 02:08:10;;;;;;;4.00;2.37;;;;;;;23.63;56.68;101637.28;5027286;28;20045;-64
2023/08/18 02:10:35;;;;;;;4.20;2.70;;;;;;;23.61;56.40;101630.44;5027286;28;20279;-64
2023/08/18 02:13:00;;;;;;;4.07;2.35;;;;;;;23.64;56.74;101638.09;5027708;28;20064;-64
2023/08/18 02:15:26;;;;;;;3.88;2.25;;;;;;;23.61;56.82;101631.25;5027915;28;20099;-64
2023/08/18 02:17:51;;;;;;;4.32;2.40;;;;;;;23.61;56.61;101627.78;5028001;28;20036;-63
2023/08/18 02:20:17;;;;;;;4.90;2.80;;;;;;;23.60;56.48;101629.56;5027413;28;20029;-63
2023/08/18 02:22:42;;;;;;;4.47;2.50;;;;;;;23.61;56.68;101628.59;5027507;28;20415;-63
2023/08/18 02:25:08;;;;;;;4.57;2.72;;;;;;;23.62;56.23;101630.25;5027348;28;20504;-64
2023/08/18 02:27:33;;;;;;;5.47;2.60;;;;;;;23.61;56.68;101630.44;5027012;28;20048;-65
2023/08/18 02:29:59;;;;;;;3.95;2.60;;;;;;;23.60;56.67;101634.88;5027548;28;20033;-62
2023/08/18 02:32:24;;;;;;;5.28;2.63;;;;;;;23.60;56.60;101632.22;5028610;28;20025;-65
2023/08/18 02:34:49;;;;;;;4.25;2.33;;;;;;;23.60;56.23;101626.91;5027424;28;20386;-63
2023/08/18 02:37:15;;;;;;;4.28;2.47;;;;;;;23.61;56.21;101627.78;5027155;28;20034;-65
2023/08/18 02:39:41;;;;;;;4.80;2.28;;;;;;;23.61;56.37;101617.13;5027121;28;20038;-62
2023/08/18 02:42:06;;;;;;;5.65;2.70;;;;;;;23.59;56.45;101619.94;5027912;28;20033;-63
2023/08/18 02:44:32;;;;;;;3.80;2.40;;;;;;;23.60;56.15;101615.44;5027151;28;20041;-63
2023/08/18 02:46:57;;;;;;;3.65;2.35;;;;;;;23.60;56.50;101615.44;5027285;28;20033;-64
2023/08/18 02:49:22;;;;;;;4.43;2.53;;;;;;;23.59;56.30;101611.09;5027448;28;20481;-64
2023/08/18 02:51:48;;;;;;;4.40;2.63;;;;;;;23.59;56.11;101625.25;5027087;28;20554;-63
2023/08/18 02:54:13;;;;;;;4.38;2.42;;;;;;;23.58;56.12;101620.91;5040397;28;20037;-65
2023/08/18 02:56:39;;;;;;;4.25;2.30;;;;;;;23.57;56.17;101611.22;5026540;28;20036;-64
2023/08/18 02:59:04;;;;;;;4.20;2.15;;;;;;;23.58;55.95;101612.09;5027016;28;20029;-66
2023/08/18 03:01:29;;;;;;;4.35;2.42;;;;;;;23.59;55.97;101613.75;5026866;28;20116;-65
2023/08/18 03:03:55;;;;;;;4.05;2.60;;;;;;;23.58;56.34;101620.91;5026621;28;20025;-64
2023/08/18 03:06:20;;;;;;;5.50;2.53;;;;;;;23.58;56.30;101615.56;5026752;28;20366;-63
2023/08/18 03:08:45;;;;;;;4.25;2.38;;;;;;;23.57;56.25;101621.03;5026004;28;20045;-63
2023/08/18 03:11:11;;;;;;;4.32;2.40;;;;;;;23.56;56.24;101617.56;5026887;28;20829;-63
2023/08/18 03:13:36;;;;;;;4.25;2.50;;;;;;;23.58;56.12;101612.09;5039767;28;20037;-63
2023/08/18 03:16:03;;;;;;;4.60;2.38;;;;;;;23.58;55.95;101604.09;5026549;28;20499;-64
2023/08/18 03:18:29;;;;;;;3.83;2.40;;;;;;;23.55;55.81;101599.91;5025842;28;20083;-65
2023/08/18 03:20:59;;;;;;;4.22;2.60;;;;;;;23.56;56.03;101604.25;5027401;28;20041;-63
2023/08/18 03:23:25;;;;;;;4.05;2.45;;;;;;;23.57;56.12;101613.88;5027717;28;20473;-63
2023/08/18 03:25:50;;;;;;;4.03;2.55;;;;;;;23.56;56.27;101617.56;5028488;28;20041;-66
2023/08/18 03:28:15;;;;;;;5.05;2.55;;;;;;;23.55;56.32;101622.00;5027147;28;20072;-63
2023/08/18 03:30:40;;;;;;;4.20;2.45;;;;;;;23.54;56.25;101617.69;5027446;28;20107;-65
2023/08/18 03:33:06;;;;;;;4.18;2.40;;;;;;;23.54;55.89;101603.53;5027425;28;20402;-62
2023/08/18 03:35:35;;;;;;;4.72;2.38;;;;;;;23.56;55.85;101609.56;5027183;28;20367;-61
2023/08/18 03:38:03;;;;;;;4.38;2.50;;;;;;;23.52;56.10;101611.66;5027727;28;20052;-64
2023/08/18 03:40:29;;;;;;;4.20;2.47;;;;;;;23.54;55.89;101616.84;5027272;28;20041;-63
2023/08/18 03:42:54;;;;;;;4.43;2.72;;;;;;;23.54;55.69;101609.72;5027984;28;20032;-63
2023/08/18 03:45:19;;;;;;;4.53;2.73;;;;;;;23.54;55.88;101611.50;5026886;28;20108;-63
2023/08/18 03:47:45;;;;;;;3.92;2.70;;;;;;;23.55;56.08;101613.19;5027328;28;20639;-63
2023/08/18 03:50:10;;;;;;;4.15;2.40;;;;;;;23.53;56.24;101600.03;5027514;28;20033;-62
2023/08/18 03:52:36;;;;;;;3.97;2.40;;;;;;;23.54;55.63;101606.19;5026234;28;20113;-62
2023/08/18 03:55:01;;;;;;;4.22;2.60;;;;;;;23.52;56.30;101609.00;5026282;28;20064;-65
2023/08/18 03:57:27;;;;;;;4.63;2.67;;;;;;;23.53;56.15;101618.66;5025655;28;20022;-62
2023/08/18 03:59:55;;;;;;;4.63;2.40;;;;;;;23.53;55.96;101613.34;5025752;28;20560;-64
2023/08/18 04:02:21;;;;;;;4.18;2.70;;;;;;;23.53;55.59;101616.00;5025816;28;20230;-62
2023/08/18 04:04:47;;;;;;;5.32;2.80;;;;;;;23.53;55.68;101601.88;5025553;28;20029;-64
2023/08/18 04:07:12;;;;;;;4.50;2.60;;;;;;;23.52;56.06;101611.66;5025864;28;20083;-63
2023/08/18 04:09:38;;;;;;;4.55;2.63;;;;;;;23.51;55.80;101612.66;5026257;28;20478;-63
2023/08/18 04:12:03;;;;;;;5.32;3.00;;;;;;;23.52;56.03;101619.63;5026144;28;20029;-63
2023/08/18 04:14:28;;;;;;;6.45;3.28;;;;;;;23.51;55.98;101609.13;5025685;28;20516;-64
2023/08/18 04:16:54;;;;;;;4.70;3.13;;;;;;;23.51;55.45;101612.66;5026077;28;20033;-63
2023/08/18 04:19:19;;;;;;;4.93;2.90;;;;;;;23.50;55.57;101608.31;5025601;28;20496;-62
2023/08/18 04:21:44;;;;;;;5.22;2.60;;;;;;;23.51;56.08;101601.16;5025155;28;20033;-62
2023/08/18 04:24:10;;;;;;;5.20;2.67;;;;;;;23.50;55.42;101595.00;5026131;28;20026;-61
2023/08/18 04:26:38;;;;;;;4.25;2.50;;;;;;;23.50;56.08;101595.00;5026059;28;20103;-62
2023/08/18 04:29:03;;;;;;;5.22;3.10;;;;;;;23.48;55.78;101586.34;5026103;28;20060;-62
2023/08/18 04:31:29;;;;;;;5.30;2.60;;;;;;;23.50;55.87;101588.84;5026311;28;20037;-62
2023/08/18 04:33:54;;;;;;;4.10;2.42;;;;;;;23.49;55.43;101581.84;5026322;28;20026;-62
2023/08/18 04:36:20;;;;;;;4.65;2.70;;;;;;;23.49;55.88;101581.84;5026247;28;20171;-63
2023/08/18 04:38:45;;;;;;;5.60;2.97;;;;;;;23.48;55.80;101589.00;5026255;28;20575;-64
2023/08/18 04:41:11;;;;;;;4.95;2.45;;;;;;;23.49;55.51;101589.81;5026383;28;20032;-63
2023/08/18 04:43:36;;;;;;;5.03;3.00;;;;;;;23.49;55.90;101593.31;5026283;28;21564;-63
2023/08/18 04:46:02;;;;;;;6.47;2.90;;;;;;;23.49;55.79;101595.97;5026430;28;20453;-63
2023/08/18 04:48:27;;;;;;;4.95;3.05;;;;;;;23.47;55.66;101603.25;5026263;28;20029;-64
2023/08/18 04:50:53;;;;;;;4.88;2.63;;;;;;;23.49;55.84;101605.78;5026068;28;20037;-64
2023/08/18 04:53:19;;;;;;;6.53;2.83;;;;;;;23.48;55.59;101607.63;5026297;28;20071;-63
2023/08/18 04:55:44;;;;;;;6.00;3.13;;;;;;;23.48;55.30;101604.09;5026189;28;20056;-63
2023/08/18 04:58:12;;;;;;;5.10;2.92;;;;;;;23.46;55.67;101601.56;5026847;28;20037;-63
2023/08/18 05:00:44;;;;;;;6.72;3.03;;;;;;;23.46;55.80;101609.56;5026140;28;20486;-64
2023/08/18 05:03:11;;;;;;;4.78;2.60;;;;;;;23.47;55.83;101605.94;5026357;28;20378;-63
2023/08/18 05:05:56;;;;;;;4.38;2.75;;;;;;;23.47;55.35;101610.41;5026027;28;20041;-63
2023/08/18 05:08:21;;;;;;;5.72;3.20;;;;;;;23.47;55.34;101605.09;5026095;28;20045;-62
2023/08/18 05:10:47;;;;;;;4.85;2.72;;;;;;;23.47;55.76;101599.78;5028899;28;20025;-63
2023/08/18 05:13:12;;;;;;;5.45;2.72;;;;;;;23.48;55.53;101609.41;5029623;28;20026;-65
2023/08/18 05:15:37;;;;;;;4.72;2.72;;;;;;;23.46;55.41;101595.44;5029671;28;20127;-64
2023/08/18 05:18:04;;;;;;;4.32;2.58;;;;;;;23.47;55.54;101589.13;5030296;28;20021;-64
2023/08/18 05:20:29;;;;;;;5.35;2.97;;;;;;;23.46;55.79;101580.28;5029995;28;20393;-63
2023/08/18 05:22:54;;;;;;;4.57;2.78;;;;;;;23.45;55.72;101581.28;5029736;28;20041;-65
2023/08/18 05:25:20;;;;;;;4.55;2.70;;;;;;;23.46;55.81;101590.09;5030046;28;20471;-65
2023/08/18 05:27:47;;;;;;;4.68;2.88;;;;;;;23.44;55.50;101582.25;5029681;28;20057;-62
2023/08/18 05:30:12;;;;;;;5.32;2.67;;;;;;;23.47;55.74;101581.97;5029777;28;20441;-62
2023/08/18 05:32:37;;;;;;;6.25;3.25;;;;;;;23.50;55.33;101583.53;5029257;28;20022;-63
2023/08/18 05:35:04;;;;;;;5.30;2.88;;;;;;;23.51;55.62;101579.88;5028655;28;20038;-62
2023/08/18 05:37:29;;;;;;;4.50;2.42;;;;;;;23.49;55.60;101579.19;5029438;28;20466;-64
2023/08/18 05:39:56;;;;;;;6.70;2.92;;;;;;;23.49;56.08;101579.19;5029240;28;20029;-62
2023/08/18 05:42:21;;;;;;;5.72;3.00;;;;;;;23.48;55.91;101581.00;5028270;28;20022;-66
2023/08/18 05:44:46;;;;;;;6.00;3.10;;;;;;;23.49;55.76;101585.34;5029319;28;20033;-65
2023/08/18 05:47:12;;;;;;;4.35;2.50;;;;;;;23.50;55.74;101581.69;5028978;28;20068;-63
2023/08/18 05:49:37;;;;;;;5.82;2.63;;;;;;;23.50;56.18;101587.03;5029366;28;20056;-64
2023/08/18 05:52:02;;;;;;;5.35;2.88;;;;;;;23.49;55.78;101590.66;5029038;28;20033;-63
2023/08/18 05:54:28;;;;;;;6.40;2.92;;;;;;;23.45;56.46;101580.44;5029237;28;20478;-63
2023/08/18 05:56:53;;;;;;;4.80;2.70;;;;;;;23.44;56.27;101592.91;5028817;28;20495;-63
2023/08/18 05:59:18;;;;;;;5.07;2.90;;;;;;;23.44;56.51;101590.25;5029818;28;20100;-62
2023/08/18 06:01:44;;;;;;;5.20;2.72;;;;;;;23.43;56.21;101595.72;5029868;28;20500;-63
2023/08/18 06:04:10;;;;;;;5.57;3.15;;;;;;;23.44;56.35;101586.75;5029731;28;20037;-63
2023/08/18 06:06:36;;;;;;;4.78;2.70;;;;;;;23.44;56.65;101600.06;5029035;28;20491;-66
2023/08/18 06:09:01;;;;;;;6.10;3.00;;;;;;;23.44;56.42;101603.53;5026968;28;20694;-65
2023/08/18 06:11:28;;;;;;;6.53;2.80;;;;;;;23.46;56.08;101609.56;5027713;28;20445;-62
2023/08/18 06:13:53;;;;;;;5.30;3.20;;;;;;;23.47;56.27;101602.44;5027676;28;20124;-64
2023/08/18 06:16:18;;;;;;;5.40;3.08;;;;;;;23.48;56.42;101606.75;5027318;28;20144;-64
2023/08/18 06:18:44;;;;;;;6.25;3.00;;;;;;;23.47;56.60;101608.59;5028286;28;20045;-65
2023/08/18 06:21:09;;;;;;;5.07;2.60;;;;;;;23.45;56.74;101605.25;5027681;28;20083;-64
2023/08/18 06:23:35;;;;;;;5.47;2.72;;;;;;;23.48;56.18;101604.94;5029344;28;20037;-65
2023/08/18 06:26:01;;;;;;;5.85;3.00;;;;;;;23.50;56.16;101600.31;5028815;28;20045;-65
2023/08/18 06:28:26;;;;;;;6.38;3.30;;;;;;;23.51;56.05;101593.16;5028147;28;20079;-65
2023/08/18 06:30:52;;;;;;;4.78;2.85;;;;;;;23.50;56.23;101588.84;5027401;28;20121;-63
2023/08/18 06:33:17;;;;;;;5.25;2.90;;;;;;;23.49;56.55;101588.00;5029030;28;20029;-67
2023/08/18 06:35:42;;;;;;;5.93;3.17;;;;;;;23.51;56.24;101596.69;5029902;28;20481;-65
2023/08/18 06:38:08;;;;;;;6.18;3.40;;;;;;;23.52;56.13;101592.19;5029252;28;20025;-66
2023/08/18 06:40:33;;;;;;;5.75;3.33;;;;;;;23.50;56.28;101584.38;5028716;28;20080;-64
2023/08/18 06:42:58;;;;;;;5.70;3.30;;;;;;;23.51;56.24;101582.53;5029695;28;20025;-65
2023/08/18 06:45:24;;;;;;;6.00;3.27;;;;;;;23.51;56.14;101587.84;5028160;28;20112;-65
2023/08/18 06:47:49;;;;;;;7.28;3.60;;;;;;;23.50;56.18;101591.50;5028259;28;20290;-65
2023/08/18 06:50:14;;;;;;;5.28;3.13;;;;;;;23.50;55.81;101586.19;5028604;28;20029;-66
2023/08/18 06:52:40;;;;;;;5.57;3.33;;;;;;;23.46;56.37;101590.94;5026933;28;21157;-65
2023/08/18 06:55:06;;;;;;;5.25;3.22;;;;;;;23.47;56.38;101595.28;5027490;28;20026;-65
2023/08/18 06:57:31;;;;;;;4.78;2.92;;;;;;;23.49;55.95;101589.81;5026594;28;20063;-66
2023/08/18 06:59:56;;;;;;;5.57;3.30;;;;;;;23.49;56.04;101582.66;5026755;28;20041;-64
2023/08/18 07:02:22;;;;;;;5.85;3.30;;;;;;;23.49;56.25;101580.00;5026585;28;20059;-65
2023/08/18 07:04:47;;;;;;;5.90;3.60;;;;;;;23.49;55.82;101571.19;5026199;28;20037;-65
2023/08/18 07:07:12;;;;;;;6.82;3.58;;;;;;;23.47;56.58;101573.19;5026155;28;20128;-65
2023/08/18 07:09:38;;;;;;;6.45;3.50;;;;;;;23.50;56.37;101573.72;5029534;28;20048;-67
2023/08/18 07:12:03;;;;;;;7.28;3.70;;;;;;;23.51;56.34;101569.22;5029996;28;20432;-65
2023/08/18 07:14:29;;;;;;;6.93;4.03;;;;;;;23.48;56.53;101567.72;5027727;28;20417;-64
2023/08/18 07:16:55;;;;;;;6.18;4.15;;;;;;;23.45;56.12;101560.00;5026985;28;20142;-63
2023/08/18 07:19:20;;;;;;;7.13;3.58;;;;;;;23.43;56.79;101562.00;5028158;28;20026;-63
2023/08/18 07:21:45;;;;;;;6.53;3.45;;;;;;;23.44;56.46;101558.31;5027236;28;20036;-64
2023/08/18 07:24:11;;;;;;;11.90;4.40;;;;;;;23.44;56.81;101558.31;5027613;28;20040;-64
2023/08/18 07:26:36;;;;;;;7.47;3.85;;;;;;;23.44;56.62;101568.13;5026923;28;20627;-62
2023/08/18 07:29:04;;;;;;;8.23;3.53;;;;;;;23.42;56.69;101568.28;5027509;28;20065;-62
2023/08/18 07:31:30;;;;;;;6.78;4.28;;;;;;;23.43;57.06;101574.44;5026902;28;20528;-63
2023/08/18 07:33:55;;;;;;;7.93;3.75;;;;;;;23.43;57.39;101588.59;5026907;28;20041;-64
2023/08/18 07:36:20;;;;;;;9.98;3.67;;;;;;;23.44;56.96;101578.78;5027010;28;20037;-65
2023/08/18 07:38:46;;;;;;;8.70;3.90;;;;;;;23.44;56.89;101573.47;5026177;28;20040;-67
2023/08/18 07:41:12;;;;;;;8.70;3.97;;;;;;;23.45;56.75;101570.66;5024972;28;20310;-65
2023/08/18 07:43:37;;;;;;;5.82;3.33;;;;;;;23.45;57.21;101573.31;5026288;28;20486;-66
2023/08/18 07:46:02;;;;;;;8.65;3.88;;;;;;;23.44;57.13;101568.97;5026762;28;20608;-64
2023/08/18 07:48:28;;;;;;;8.02;4.20;;;;;;;23.45;57.05;101569.78;5026681;28;20038;-63
2023/08/18 07:50:53;;;;;;;5.68;3.63;;;;;;;23.45;57.06;101578.63;5026951;28;20025;-65
2023/08/18 07:53:18;;;;;;;10.68;4.43;;;;;;;23.47;57.24;101578.50;5027202;28;20026;-65
2023/08/18 07:55:44;;;;;;;8.60;3.55;;;;;;;23.44;57.44;101574.28;5026835;28;20031;-63
2023/08/18 07:58:09;;;;;;;7.60;3.97;;;;;;;23.46;57.36;101592.75;5026541;28;20060;-63
2023/08/18 08:00:35;;;;;;;6.13;3.70;;;;;;;23.46;57.45;101592.75;5026249;28;20274;-66
2023/08/18 08:03:00;;;;;;;10.20;4.30;;;;;;;23.46;57.56;101584.78;5026682;28;20045;-64
2023/08/18 08:05:26;;;;;;;7.95;4.30;;;;;;;23.46;57.31;101577.63;5026649;28;20065;-64
2023/08/18 08:07:51;;;;;;;10.07;3.85;;;;;;;23.46;57.45;101584.78;5024751;28;20132;-65
2023/08/18 08:10:17;;;;;;;7.75;3.90;;;;;;;23.46;57.72;101584.78;5025613;28;20401;-67
2023/08/18 08:12:44;;;;;;;15.32;4.13;;;;;;;23.51;57.88;101580.72;5024826;28;20075;-63
2023/08/18 08:15:12;;;;;;;7.57;4.47;;;;;;;23.60;57.29;101594.16;5025766;28;20041;-64
2023/08/18 08:17:38;;;;;;;10.07;4.15;;;;;;;23.63;57.32;101592.03;5007499;28;20029;-67
2023/08/18 08:20:10;;;;;;;8.95;4.78;;;;;;;23.65;57.11;101592.72;5026015;28;20043;-66
2023/08/18 08:22:36;;;;;;;11.55;4.60;;;;;;;23.69;57.42;101590.63;5019323;28;20040;-63
2023/08/18 08:25:01;;;;;;;9.82;4.95;;;;;;;23.70;57.15;101592.28;4130651;28;10000923;-65
2023/08/18 08:27:26;;;;;;;10.23;4.93;;;;;;;23.72;57.13;101587.69;5017216;28;20137;-65
2023/08/18 08:29:52;;;;;;;9.82;4.80;;;;;;;23.73;57.61;101592.00;5002726;28;20033;-67
2023/08/18 08:32:18;;;;;;;6.80;4.28;;;;;;;23.76;57.48;101596.22;5002188;28;20042;-64
2023/08/18 08:34:50;;;;;;;7.70;4.80;;;;;;;23.76;56.87;101594.38;5003987;28;20157;-64
2023/08/18 08:37:16;;;;;;;10.55;4.75;;;;;;;23.78;57.31;101599.56;5002328;28;20037;-64
2023/08/18 08:39:42;;;;;;;12.52;4.45;;;;;;;23.79;57.46;101606.56;4993515;28;20438;-62
2023/08/18 08:42:08;;;;;;;8.75;4.65;;;;;;;23.83;57.10;101608.84;5005070;28;20045;-64
2023/08/18 08:44:33;;;;;;;16.00;4.60;;;;;;;23.84;57.16;101613.16;4998987;28;20517;-66
2023/08/18 08:47:01;;;;;;;13.52;5.20;;;;;;;23.80;57.41;101610.91;5010290;28;20038;-63
2023/08/18 08:49:30;;;;;;;14.55;5.18;;;;;;;23.81;57.31;101613.41;4975365;28;20426;-64
2023/08/18 08:52:17;;;;;;;17.63;5.15;;;;;;;23.82;57.54;101606.28;5000909;28;20591;-67
2023/08/18 08:54:58;;;;;;;13.20;5.10;;;;;;;23.84;57.66;101620.31;5005470;28;20057;-65
2023/08/18 08:57:24;;;;;;;15.15;5.05;;;;;;;23.85;57.76;101614.03;5010961;28;20044;-68
2023/08/18 08:59:50;;;;;;;11.10;5.13;;;;;;;23.81;57.22;101615.25;5011093;28;20030;-67
2023/08/18 09:02:15;;;;;;;11.52;4.93;;;;;;;23.82;57.73;101614.28;5009975;28;20045;-67
2023/08/18 09:04:41;;;;;;;12.55;5.13;;;;;;;23.81;57.38;101616.06;5007608;28;20034;-68
2023/08/18 09:07:10;;;;;;;10.48;4.65;;;;;;;23.81;57.17;101623.22;5009796;28;20049;-66
2023/08/18 09:09:37;;;;;;;12.73;5.32;;;;;;;23.78;57.43;101621.69;5009610;28;20045;-68
2023/08/18 09:12:07;;;;;;;10.10;5.00;;;;;;;23.81;57.75;101616.06;5007835;28;20123;-68
2023/08/18 09:14:34;;;;;;;12.32;5.10;;;;;;;23.85;57.28;101617.50;5009018;28;20045;-68
2023/08/18 09:17:00;;;;;;;13.32;5.70;;;;;;;23.88;57.65;101617.22;5009142;28;20111;-69
2023/08/18 09:19:26;;;;;;;8.32;4.88;;;;;;;23.89;57.14;101618.91;5009541;28;20049;-70
2023/08/18 09:21:51;;;;;;;18.10;5.32;;;;;;;23.92;57.45;101615.09;5009982;28;20037;-69
2023/08/18 09:24:20;;;;;;;14.07;5.13;;;;;;;23.92;57.43;101608.94;5009446;28;20041;-69
2023/08/18 09:26:45;;;;;;;16.23;5.25;;;;;;;23.96;57.31;101607.66;5010124;28;20057;-68
2023/08/18 09:29:10;;;;;;;15.02;5.65;;;;;;;23.97;57.43;101606.69;5008976;28;21227;-68
2023/08/18 09:31:35;;;;;;;12.87;5.10;;;;;;;23.99;57.77;101591.41;5009359;28;20053;-68
2023/08/18 09:34:02;;;;;;;25.03;5.37;;;;;;;24.00;57.40;101591.25;5009258;28;20318;-66
2023/08/18 09:36:30;;;;;;;23.23;5.82;;;;;;;24.01;58.00;101597.44;5007810;28;20263;-67
2023/08/18 09:38:55;;;;;;;15.73;5.18;;;;;;;24.03;57.32;101598.13;5009028;28;20038;-66
2023/08/18 09:41:21;;;;;;;17.67;6.00;;;;;;;24.04;57.60;101602.47;5008658;28;20047;-64
2023/08/18 09:43:46;;;;;;;18.38;4.95;;;;;;;24.04;57.38;101597.16;5007341;28;20026;-66
2023/08/18 09:46:13;;;;;;;20.30;5.80;;;;;;;24.03;57.61;101590.13;5008202;28;20133;-70
2023/08/18 09:48:40;;;;;;;31.65;6.05;;;;;;;24.05;57.93;101598.81;5007312;28;20999;-68
2023/08/18 09:51:09;;;;;;;18.75;5.82;;;;;;;24.03;58.10;101592.81;5007376;28;20030;-64
2023/08/18 09:53:36;;;;;;;28.55;6.72;;;;;;;24.08;57.45;101595.84;5007363;28;20030;-64
2023/08/18 09:56:12;;;;;;;22.83;5.90;;;;;;;24.08;57.81;101596.72;5006673;28;20033;-66
2023/08/18 09:58:50;;;;;;;17.88;5.63;;;;;;;24.12;57.65;101594.59;5008026;28;20041;-66
2023/08/18 10:01:17;;;;;;;25.08;6.30;;;;;;;24.13;57.29;101593.59;5007739;28;20037;-68
2023/08/18 10:03:46;;;;;;;14.88;5.45;;;;;;;24.11;57.70;101586.75;5006559;28;20034;-70
2023/08/18 10:06:12;;;;;;;22.70;5.40;;;;;;;24.13;57.75;101590.09;5008341;28;20037;-70
2023/08/18 10:08:39;;;;;;;32.97;7.32;;;;;;;24.15;57.76;101598.78;5007356;28;20502;-64
2023/08/18 10:11:05;;;;;;;24.00;5.70;;;;;;;24.17;58.16;101591.50;5007824;28;20113;-67
2023/08/18 10:13:33;;;;;;;28.00;6.30;;;;;;;24.16;58.19;101581.81;5007606;28;20084;-70
2023/08/18 10:16:00;;;;;;;16.77;5.15;;;;;;;24.17;57.72;101575.50;5007498;28;20031;-67
2023/08/18 10:18:25;;;;;;;19.70;5.88;;;;;;;24.20;58.03;101577.88;5006239;28;20030;-66
2023/08/18 10:20:53;;;;;;;16.45;6.07;;;;;;;24.18;57.92;101579.84;5006921;28;20029;-67
2023/08/18 10:23:19;;;;;;;15.27;5.72;;;;;;;24.18;58.05;101571.84;5006990;28;20029;-69
2023/08/18 10:25:48;;;;;;;14.60;5.63;;;;;;;24.19;58.31;101574.38;5006982;28;20040;-68
2023/08/18 10:28:19;;;;;;;14.80;6.20;;;;;;;24.17;58.45;101568.34;5006819;28;20068;-67
2023/08/18 10:30:56;;;;;;;16.27;6.32;;;;;;;24.09;58.52;101552.28;5007344;28;20042;-66
2023/08/18 10:33:52;;;;;;;13.98;5.65;;;;;;;24.03;58.71;101558.19;5006788;28;20041;-66
2023/08/18 10:36:29;;;;;;;18.67;6.30;;;;;;;23.99;58.78;101557.66;5002865;28;20414;-66
2023/08/18 10:38:54;;;;;;;28.80;7.18;;;;;;;23.98;59.17;101558.63;5008016;28;20042;-71
2023/08/18 10:41:28;;;;;;;23.13;6.20;;;;;;;23.97;59.28;101553.44;5009158;28;20084;-68
2023/08/18 10:43:58;;;;;;;27.08;6.97;;;;;;;24.02;59.13;101551.19;5007766;28;20030;-69
2023/08/18 10:46:34;;;;;;;25.58;6.97;;;;;;;23.98;59.32;101547.97;5009342;28;20064;-67
2023/08/18 10:49:00;;;;;;;25.55;6.47;;;;;;;24.01;58.52;101555.66;5008797;28;20418;-67
2023/08/18 10:51:27;;;;;;;22.67;6.47;;;;;;;24.00;58.83;101553.97;5008004;28;20045;-65
2023/08/18 10:53:52;;;;;;;21.77;6.95;;;;;;;24.00;58.36;101547.84;5007390;28;20038;-66
2023/08/18 10:56:18;;;;;;;15.90;6.90;;;;;;;23.97;58.74;101546.28;5008125;28;20399;-67
2023/08/18 10:58:43;;;;;;;20.90;6.95;;;;;;;23.99;58.51;101547.00;5006229;28;20038;-65
2023/08/18 11:01:09;;;;;;;15.45;6.72;;;;;;;23.97;58.91;101537.47;5006109;28;20041;-67
2023/08/18 11:03:35;;;;;;;15.00;6.72;;;;;;;23.96;58.53;101535.78;5006644;28;20072;-67
2023/08/18 11:06:02;;;;;;;22.35;7.68;;;;;;;23.94;58.37;101524.47;5006727;28;20033;-67
2023/08/18 11:08:28;;;;;;;16.75;7.05;;;;;;;23.93;58.83;101536.09;5006828;28;20042;-68
2023/08/18 11:10:54;;;;;;;21.17;6.50;;;;;;;23.91;58.33;101528.28;5008314;28;20117;-66
2023/08/18 11:13:28;;;;;;;14.60;6.32;;;;;;;23.90;58.44;101523.91;5007635;28;20116;-67
2023/08/18 11:15:55;;;;;;;14.80;7.00;;;;;;;23.89;58.25;101524.91;5008110;28;20541;-66
2023/08/18 11:18:21;;;;;;;15.40;6.55;;;;;;;23.88;58.78;101526.72;5009713;28;20081;-67